Moapa, Nevada
Current Conditions -  °F | °C
As of 12:58 AM on Friday 31 Oct 2014 (Local Time) from KLSV Reporting Station
Scattered Clouds Scattered Clouds  
Wind Chill: 66°   Ceiling: Unl
Heat Index: 66°   Visibility: 10mi
Dew Point: 28°   Wind: 0mph
Humidity: 24%   Direction: NA
Pressure: 29.94"   Gusts: NA
Location:  36.67°N, 114.62°W
Report Text: KLSV 310758Z AUTO 00000KT 10SM SCT200 SCT220 19/M02 A2994 RMK AO2 SLP121 T01871021 402870090 $
Loading
Personal Weather Stations






























Interactive Weather Map
Tropical Storm Tracking
New forecast layout! Learn more

10-Day Weather Forecast

Advertisements
Track Severe Weather on mobile